createdAt,value
2023-04-20T00:00:12.914Z,1003.83
2023-04-20T00:01:13.294Z,1003.83
2023-04-20T00:02:13.588Z,1003.80
2023-04-20T00:03:13.790Z,1003.75
2023-04-20T00:04:12.943Z,1003.72
2023-04-20T00:05:12.988Z,1003.73
2023-04-20T00:06:13.152Z,1003.70
2023-04-20T00:07:13.250Z,1003.67
2023-04-20T00:08:13.409Z,1003.62
2023-04-20T00:09:13.548Z,1003.65
2023-04-20T00:10:13.860Z,1003.62
2023-04-20T00:11:13.952Z,1003.67
2023-04-20T00:12:13.206Z,1003.63
2023-04-20T00:13:13.293Z,1003.64
2023-04-20T00:14:13.168Z,1003.62
2023-04-20T00:15:13.328Z,1003.59
2023-04-20T00:16:13.255Z,1003.60
2023-04-20T00:17:13.217Z,1003.59
2023-04-20T00:18:13.229Z,1003.52
2023-04-20T00:19:13.600Z,1003.50
2023-04-20T00:20:13.569Z,1003.49
2023-04-20T00:21:13.783Z,1003.47
2023-04-20T00:22:13.664Z,1003.50
2023-04-20T00:23:13.834Z,1003.48
2023-04-20T00:24:13.937Z,1003.49
2023-04-20T00:25:12.815Z,1003.45
2023-04-20T00:26:13.809Z,1003.42
2023-04-20T00:27:13.851Z,1003.40
2023-04-20T00:28:13.786Z,1003.44
2023-04-20T00:29:13.888Z,1003.37
2023-04-20T00:30:13.127Z,1003.38
2023-04-20T00:31:13.368Z,1003.35
2023-04-20T00:32:13.308Z,1003.33
2023-04-20T00:33:13.274Z,1003.32
2023-04-20T00:34:13.434Z,1003.30
2023-04-20T00:35:13.609Z,1003.26
2023-04-20T00:36:13.426Z,1003.25
2023-04-20T00:37:13.638Z,1003.18
2023-04-20T00:38:13.517Z,1003.22
2023-04-20T00:39:13.536Z,1003.16
2023-04-20T00:40:13.544Z,1003.16
2023-04-20T00:41:13.472Z,1003.12
2023-04-20T00:42:13.785Z,1003.13
2023-04-20T00:43:13.651Z,1003.10
2023-04-20T00:44:13.643Z,1003.09
2023-04-20T00:45:13.522Z,1003.04
2023-04-20T00:46:13.633Z,1003.05
2023-04-20T00:47:14.026Z,1003.03
2023-04-20T00:48:12.937Z,1003.04
2023-04-20T00:49:12.922Z,1003.04
2023-04-20T00:50:13.192Z,1003.01
2023-04-20T00:51:13.363Z,1003.02
2023-04-20T00:52:13.263Z,1003.01
2023-04-20T00:53:13.330Z,1003.00
2023-04-20T00:54:13.788Z,1002.99
2023-04-20T00:55:13.847Z,1002.90
2023-04-20T00:56:13.720Z,1002.94
2023-04-20T00:57:14.009Z,1002.92
2023-04-20T00:58:12.962Z,1002.90
2023-04-20T00:59:13.280Z,1002.91
2023-04-20T01:00:13.196Z,1002.87
2023-04-20T01:01:13.112Z,1002.91
2023-04-20T01:02:13.128Z,1002.91
2023-04-20T01:03:13.411Z,1002.83
2023-04-20T01:04:13.681Z,1002.78
2023-04-20T01:05:13.790Z,1002.78
2023-04-20T01:06:13.658Z,1002.76
2023-04-20T01:07:13.540Z,1002.78
2023-04-20T01:08:13.554Z,1002.79
2023-04-20T01:09:13.686Z,1002.73
2023-04-20T01:10:13.540Z,1002.72
2023-04-20T01:11:13.816Z,1002.69
2023-04-20T01:12:13.702Z,1002.65
2023-04-20T01:13:13.828Z,1002.65
2023-04-20T01:14:13.983Z,1002.68
2023-04-20T01:15:12.818Z,1002.71
2023-04-20T01:16:13.916Z,1002.64
2023-04-20T01:17:12.990Z,1002.61
2023-04-20T01:18:12.933Z,1002.60
2023-04-20T01:19:13.072Z,1002.60
2023-04-20T01:20:13.156Z,1002.60
2023-04-20T01:21:13.284Z,1002.57
2023-04-20T01:22:14.004Z,1002.57
2023-04-20T01:23:12.954Z,1002.51
2023-04-20T01:24:13.017Z,1002.52
2023-04-20T01:25:13.033Z,1002.47
2023-04-20T01:26:13.078Z,1002.45
2023-04-20T01:27:13.228Z,1002.41
2023-04-20T01:28:13.324Z,1002.38
2023-04-20T01:29:13.831Z,1002.41
2023-04-20T01:30:13.671Z,1002.44
2023-04-20T01:31:13.818Z,1002.34
2023-04-20T01:32:13.719Z,1002.34
2023-04-20T01:33:13.571Z,1002.25
2023-04-20T01:34:13.447Z,1002.27
2023-04-20T01:35:13.419Z,1002.27
2023-04-20T01:36:13.471Z,1002.22
2023-04-20T01:37:13.442Z,1002.19
2023-04-20T01:38:13.319Z,1002.16
2023-04-20T01:39:13.392Z,1002.11
2023-04-20T01:40:13.354Z,1002.11
2023-04-20T01:41:13.147Z,1002.08
2023-04-20T01:42:13.489Z,1002.08
2023-04-20T01:43:13.869Z,1002.08
2023-04-20T01:44:13.776Z,1002.09
2023-04-20T01:45:13.724Z,1002.10
2023-04-20T01:46:13.621Z,1002.10
2023-04-20T01:47:13.687Z,1002.06
2023-04-20T01:48:14.040Z,1002.11
2023-04-20T01:49:13.102Z,1002.08
2023-04-20T01:50:12.994Z,1002.09
2023-04-20T01:51:13.168Z,1002.02
2023-04-20T01:52:13.580Z,1002.01
2023-04-20T01:53:13.490Z,1001.92
2023-04-20T01:54:13.532Z,1001.91
2023-04-20T01:55:13.396Z,1001.91
2023-04-20T01:56:13.410Z,1001.94
2023-04-20T01:57:13.237Z,1001.90
2023-04-20T01:58:13.394Z,1001.86
2023-04-20T01:59:13.699Z,1001.86
2023-04-20T02:00:13.763Z,1001.84
2023-04-20T02:01:13.799Z,1001.85
2023-04-20T02:02:13.806Z,1001.79
2023-04-20T02:03:14.269Z,1001.82
2023-04-20T02:04:13.338Z,1001.86
2023-04-20T02:05:13.378Z,1001.83
2023-04-20T02:06:13.561Z,1001.81
2023-04-20T02:07:14.213Z,1001.80
2023-04-20T02:08:13.606Z,1001.79
2023-04-20T02:09:13.515Z,1001.78
2023-04-20T02:10:13.773Z,1001.78
2023-04-20T02:11:14.129Z,1001.78
2023-04-20T02:12:13.387Z,1001.79
2023-04-20T02:13:13.588Z,1001.78
2023-04-20T02:14:13.500Z,1001.74
2023-04-20T02:15:13.938Z,1001.73
2023-04-20T02:16:12.807Z,1001.74
2023-04-20T02:17:13.768Z,1001.74
2023-04-20T02:18:13.615Z,1001.71
2023-04-20T02:19:13.548Z,1001.70
2023-04-20T02:20:13.428Z,1001.74
2023-04-20T02:21:13.337Z,1001.75
2023-04-20T02:22:13.353Z,1001.67
2023-04-20T02:23:13.268Z,1001.67
2023-04-20T02:24:13.198Z,1001.61
2023-04-20T02:25:13.105Z,1001.64
2023-04-20T02:26:13.036Z,1001.66
2023-04-20T02:27:12.910Z,1001.65
2023-04-20T02:28:12.729Z,1001.64
2023-04-20T02:29:13.791Z,1001.65
2023-04-20T02:30:13.665Z,1001.65
2023-04-20T02:31:13.736Z,1001.65
2023-04-20T02:32:13.915Z,1001.62
2023-04-20T02:33:12.834Z,1001.62
2023-04-20T02:34:13.716Z,1001.56
2023-04-20T02:35:13.921Z,1001.57
2023-04-20T02:36:12.804Z,1001.54
2023-04-20T02:37:13.866Z,1001.53
2023-04-20T02:38:12.765Z,1001.53
2023-04-20T02:39:13.688Z,1001.50
2023-04-20T02:40:13.826Z,1001.51
2023-04-20T02:41:13.853Z,1001.50
2023-04-20T02:42:13.801Z,1001.43
2023-04-20T02:43:13.706Z,1001.46
2023-04-20T02:44:13.581Z,1001.47
2023-04-20T02:45:13.501Z,1001.46
2023-04-20T02:46:13.430Z,1001.43
2023-04-20T02:47:13.328Z,1001.42
2023-04-20T02:48:13.337Z,1001.39
2023-04-20T02:49:13.240Z,1001.43
2023-04-20T02:50:13.133Z,1001.38
2023-04-20T02:51:13.281Z,1001.40
2023-04-20T02:52:13.967Z,1001.44
2023-04-20T02:53:12.950Z,1001.42
2023-04-20T02:54:12.880Z,1001.48
2023-04-20T02:55:13.810Z,1001.43
2023-04-20T02:56:13.918Z,1001.42
2023-04-20T02:57:12.941Z,1001.40
2023-04-20T02:58:12.802Z,1001.44
2023-04-20T02:59:14.122Z,1001.43
2023-04-20T03:00:14.300Z,1001.42
2023-04-20T03:01:13.411Z,1001.44
2023-04-20T03:02:13.508Z,1001.37
2023-04-20T03:03:14.064Z,1001.41
2023-04-20T03:04:13.412Z,1001.37
2023-04-20T03:05:13.602Z,1001.35
2023-04-20T03:06:13.846Z,1001.38
2023-04-20T03:07:16.398Z,1001.34
2023-04-20T03:08:13.460Z,1001.30
2023-04-20T03:09:13.377Z,1001.34
2023-04-20T03:10:13.299Z,1001.26
2023-04-20T03:11:13.501Z,1001.30
2023-04-20T03:12:13.683Z,1001.24
2023-04-20T03:13:14.832Z,1001.22
2023-04-20T03:14:13.888Z,1001.27
2023-04-20T03:15:12.814Z,1001.23
2023-04-20T03:16:13.770Z,1001.20
2023-04-20T03:17:13.831Z,1001.23
2023-04-20T03:18:13.850Z,1001.20
2023-04-20T03:19:13.875Z,1001.19
2023-04-20T03:20:13.902Z,1001.16
2023-04-20T03:21:13.034Z,1001.18
2023-04-20T03:22:12.862Z,1001.14
2023-04-20T03:23:13.858Z,1001.17
2023-04-20T03:24:13.963Z,1001.17
2023-04-20T03:25:13.176Z,1001.18
2023-04-20T03:26:13.124Z,1001.22
2023-04-20T03:27:13.053Z,1001.20
2023-04-20T03:28:12.933Z,1001.18
2023-04-20T03:29:12.930Z,1001.17
2023-04-20T03:30:12.887Z,1001.18
2023-04-20T03:31:13.074Z,1001.18
2023-04-20T03:32:13.365Z,1001.15
2023-04-20T03:33:13.350Z,1001.13
2023-04-20T03:34:13.520Z,1001.12
2023-04-20T03:35:13.728Z,1001.12
2023-04-20T03:36:13.664Z,1001.13
2023-04-20T03:37:13.641Z,1001.13
2023-04-20T03:38:14.171Z,1001.12
2023-04-20T03:39:13.165Z,1001.13
2023-04-20T03:40:13.257Z,1001.14
2023-04-20T03:41:13.964Z,1001.08
2023-04-20T03:42:12.883Z,1001.11
2023-04-20T03:43:12.912Z,1001.04
2023-04-20T03:44:13.288Z,1001.06
2023-04-20T03:45:13.249Z,1001.08
2023-04-20T03:46:13.345Z,1001.00
2023-04-20T03:47:13.258Z,1000.96
2023-04-20T03:48:13.519Z,1000.93
2023-04-20T03:49:13.480Z,1001.00
2023-04-20T03:50:13.497Z,1000.95
2023-04-20T03:51:13.321Z,1000.99
2023-04-20T03:52:13.191Z,1001.02
2023-04-20T03:53:13.107Z,1000.99
2023-04-20T03:54:13.038Z,1001.00
2023-04-20T03:55:18.090Z,1000.99
2023-04-20T03:56:13.201Z,1001.02
2023-04-20T03:57:13.183Z,1000.98
2023-04-20T03:58:13.063Z,1000.99
2023-04-20T03:59:13.014Z,1001.01
2023-04-20T04:00:12.993Z,1001.02
2023-04-20T04:01:12.991Z,1000.97
2023-04-20T04:02:13.247Z,1001.06
2023-04-20T04:03:13.637Z,1000.99
2023-04-20T04:04:14.670Z,1001.01
2023-04-20T04:05:13.931Z,1000.95
2023-04-20T04:06:12.878Z,1001.00
2023-04-20T04:07:13.967Z,1000.96
2023-04-20T04:08:13.203Z,1000.95
2023-04-20T04:09:13.410Z,1000.92
2023-04-20T04:10:13.590Z,1000.99
2023-04-20T04:11:13.482Z,1000.97
2023-04-20T04:12:13.441Z,1001.01
2023-04-20T04:13:13.312Z,1000.99
2023-04-20T04:14:13.168Z,1000.97
2023-04-20T04:15:13.206Z,1001.01
2023-04-20T04:16:13.916Z,1000.98
2023-04-20T04:17:13.073Z,1001.01
2023-04-20T04:18:13.507Z,1001.00
2023-04-20T04:19:13.419Z,1000.99
2023-04-20T04:20:13.333Z,1000.94
2023-04-20T04:21:13.282Z,1000.93
2023-04-20T04:22:13.310Z,1000.98
2023-04-20T04:23:13.312Z,1000.97
2023-04-20T04:24:13.334Z,1000.94
2023-04-20T04:25:13.484Z,1000.96
2023-04-20T04:26:13.540Z,1000.95
2023-04-20T04:27:13.719Z,1000.90
2023-04-20T04:28:13.969Z,1000.93
2023-04-20T04:29:40.741Z,1000.96
2023-04-20T04:30:13.861Z,1000.93
2023-04-20T04:31:14.262Z,1000.88
2023-04-20T04:32:13.585Z,1000.90
2023-04-20T04:33:13.763Z,1000.94
2023-04-20T04:34:13.717Z,1000.91
2023-04-20T04:35:13.701Z,1000.92
2023-04-20T04:36:13.903Z,1000.94
2023-04-20T04:37:13.300Z,1000.92
2023-04-20T04:38:13.485Z,1000.93
2023-04-20T04:39:13.428Z,1000.95
2023-04-20T04:40:13.475Z,1000.93
2023-04-20T04:41:19.024Z,1000.96
2023-04-20T04:42:13.322Z,1000.83
2023-04-20T04:43:13.511Z,1000.95
2023-04-20T04:44:13.883Z,1000.93
2023-04-20T04:45:13.366Z,1000.98
2023-04-20T04:46:13.716Z,1000.93
2023-04-20T04:47:18.899Z,1000.92
2023-04-20T04:48:13.278Z,1000.96
2023-04-20T04:49:13.317Z,1000.99
2023-04-20T04:50:13.286Z,1000.94
2023-04-20T04:51:13.216Z,1000.95
2023-04-20T04:52:13.373Z,1000.95
2023-04-20T04:53:13.771Z,1000.94
2023-04-20T04:54:19.955Z,1000.94
2023-04-20T04:55:14.946Z,1000.96
2023-04-20T04:56:13.533Z,1000.97
2023-04-20T04:57:13.416Z,1000.97
2023-04-20T04:58:13.832Z,1000.97
2023-04-20T04:59:13.824Z,1000.93
2023-04-20T05:00:13.922Z,1000.98
2023-04-20T05:01:13.244Z,1000.98
2023-04-20T05:02:13.220Z,1000.98
2023-04-20T05:03:13.891Z,1000.99
2023-04-20T05:04:13.224Z,1000.99
2023-04-20T05:05:13.898Z,1000.97
2023-04-20T05:06:13.091Z,1000.98
2023-04-20T05:07:13.149Z,1000.98
2023-04-20T05:08:13.645Z,1001.02
2023-04-20T05:09:13.988Z,1001.00
2023-04-20T05:10:15.102Z,1000.99
2023-04-20T05:11:13.478Z,1001.10
2023-04-20T05:12:13.535Z,1000.99
2023-04-20T05:13:13.660Z,1001.03
2023-04-20T05:14:13.551Z,1001.03
2023-04-20T05:15:13.558Z,1001.05
2023-04-20T05:16:13.927Z,1001.03
2023-04-20T05:17:13.133Z,1000.98
2023-04-20T05:18:13.013Z,1001.03
2023-04-20T05:19:12.861Z,1001.07
2023-04-20T05:20:13.944Z,1001.05
2023-04-20T05:21:12.922Z,1001.11
2023-04-20T05:22:12.927Z,1001.10
2023-04-20T05:23:12.817Z,1001.10
2023-04-20T05:24:14.387Z,1001.07
2023-04-20T05:25:24.577Z,1001.08
2023-04-20T05:26:13.772Z,1001.10
2023-04-20T05:27:18.894Z,1001.11
2023-04-20T05:28:12.877Z,1001.19
2023-04-20T05:29:12.837Z,1001.20
2023-04-20T05:30:20.268Z,1001.17
2023-04-20T05:31:13.286Z,1001.19
2023-04-20T05:32:13.397Z,1001.17
2023-04-20T05:33:13.550Z,1001.24
2023-04-20T05:34:13.572Z,1001.22
2023-04-20T05:35:13.522Z,1001.23
2023-04-20T05:36:13.698Z,1001.28
2023-04-20T05:37:13.651Z,1001.18
2023-04-20T05:38:13.691Z,1001.20
2023-04-20T05:39:13.817Z,1001.20
2023-04-20T05:40:13.914Z,1001.19
2023-04-20T05:41:13.101Z,1001.17
2023-04-20T05:42:13.305Z,1001.20
2023-04-20T05:43:13.362Z,1001.21
2023-04-20T05:44:13.355Z,1001.13
2023-04-20T05:45:13.437Z,1001.19
2023-04-20T05:46:13.411Z,1001.23
2023-04-20T05:47:14.159Z,1001.20
2023-04-20T05:48:13.372Z,1001.19
2023-04-20T05:49:13.368Z,1001.23
2023-04-20T05:50:13.315Z,1001.20
2023-04-20T05:51:13.402Z,1001.22
2023-04-20T05:52:13.298Z,1001.26
2023-04-20T05:53:13.424Z,1001.25
2023-04-20T05:54:13.377Z,1001.25
2023-04-20T05:55:14.451Z,1001.21
2023-04-20T05:56:13.367Z,1001.22
2023-04-20T05:57:13.490Z,1001.27
2023-04-20T05:58:13.407Z,1001.24
2023-04-20T05:59:13.264Z,1001.32
2023-04-20T06:00:13.322Z,1001.35
2023-04-20T06:01:13.221Z,1001.33
2023-04-20T06:02:13.719Z,1001.33
2023-04-20T06:03:14.123Z,1001.26
2023-04-20T06:04:13.682Z,1001.28
2023-04-20T06:05:13.832Z,1001.33
2023-04-20T06:06:16.106Z,1001.28
2023-04-20T06:07:13.890Z,1001.29
2023-04-20T06:08:13.010Z,1001.27
2023-04-20T06:09:12.987Z,1001.29
2023-04-20T06:10:13.079Z,1001.27
2023-04-20T06:11:13.289Z,1001.30
2023-04-20T06:12:13.636Z,1001.32
2023-04-20T06:13:13.504Z,1001.27
2023-04-20T06:14:13.514Z,1001.27
2023-04-20T06:15:13.654Z,1001.24
2023-04-20T06:16:13.766Z,1001.29
2023-04-20T06:17:13.901Z,1001.26
2023-04-20T06:18:13.580Z,1001.26
2023-04-20T06:19:13.606Z,1001.28
2023-04-20T06:20:13.846Z,1001.24
2023-04-20T06:21:13.879Z,1001.27
2023-04-20T06:22:12.700Z,1001.20
2023-04-20T06:23:14.061Z,1001.26
2023-04-20T06:24:13.269Z,1001.26
2023-04-20T06:25:13.265Z,1001.26
2023-04-20T06:26:13.390Z,1001.28
2023-04-20T06:27:13.555Z,1001.24
2023-04-20T06:28:13.581Z,1001.19
2023-04-20T06:29:13.628Z,1001.32
2023-04-20T06:30:13.777Z,1001.23
2023-04-20T06:31:13.919Z,1001.19
2023-04-20T06:32:12.908Z,1001.22
2023-04-20T06:33:13.344Z,1001.19
2023-04-20T06:34:13.269Z,1001.20
2023-04-20T06:35:13.308Z,1001.23
2023-04-20T06:36:13.446Z,1001.22
2023-04-20T06:37:13.964Z,1001.24
2023-04-20T06:38:12.962Z,1001.17
2023-04-20T06:39:13.062Z,1001.16
2023-04-20T06:40:16.041Z,1001.14
2023-04-20T06:41:13.311Z,1001.13
2023-04-20T06:42:13.438Z,1001.18
2023-04-20T06:43:13.465Z,1001.15
2023-04-20T06:44:13.455Z,1001.13
2023-04-20T06:45:13.579Z,1001.12
2023-04-20T06:46:13.771Z,1001.13
2023-04-20T06:47:13.892Z,1001.12
2023-04-20T06:48:30.100Z,1001.10
2023-04-20T06:49:13.104Z,1001.10
2023-04-20T06:50:13.242Z,1001.08
2023-04-20T06:51:13.078Z,1001.08
2023-04-20T06:52:12.930Z,1001.11
2023-04-20T06:53:12.886Z,1001.12
2023-04-20T06:54:12.860Z,1001.11
2023-04-20T06:55:13.934Z,1001.12
2023-04-20T06:56:13.186Z,1001.07
2023-04-20T06:57:18.291Z,1001.12
2023-04-20T06:58:13.343Z,1001.08
2023-04-20T06:59:13.637Z,1001.06
2023-04-20T07:00:13.521Z,1001.01
2023-04-20T07:01:13.800Z,1001.02
2023-04-20T07:02:14.025Z,1001.05
2023-04-20T07:03:18.541Z,1001.09
2023-04-20T07:04:13.908Z,1001.07
2023-04-20T07:05:12.867Z,1001.11
2023-04-20T07:06:14.306Z,1001.05
2023-04-20T07:07:13.709Z,1001.03
2023-04-20T07:08:13.670Z,1001.06
2023-04-20T07:09:13.631Z,1001.03
2023-04-20T07:10:13.859Z,1001.02
2023-04-20T07:11:12.839Z,1001.04
2023-04-20T07:12:14.161Z,1000.99
2023-04-20T07:13:13.135Z,1000.99
2023-04-20T07:14:13.076Z,1000.98
2023-04-20T07:15:13.124Z,1001.01
2023-04-20T07:16:13.242Z,1001.05
2023-04-20T07:17:13.186Z,1000.93
2023-04-20T07:18:13.522Z,1000.98
2023-04-20T07:19:13.886Z,1000.98
2023-04-20T07:20:12.786Z,1000.98
2023-04-20T07:21:13.649Z,1001.01
2023-04-20T07:22:13.439Z,1001.01
2023-04-20T07:23:13.477Z,1000.97
2023-04-20T07:24:13.469Z,1001.03
2023-04-20T07:25:13.441Z,1000.98
2023-04-20T07:26:13.655Z,1000.97
2023-04-20T07:27:13.723Z,1000.97
2023-04-20T07:28:13.795Z,1001.00
2023-04-20T07:29:13.896Z,1000.92
2023-04-20T07:30:12.920Z,1000.98
2023-04-20T07:31:12.994Z,1000.93
2023-04-20T07:32:13.088Z,1000.96
2023-04-20T07:33:13.315Z,1000.98
2023-04-20T07:34:13.181Z,1000.98
2023-04-20T07:35:13.093Z,1000.92
2023-04-20T07:36:13.028Z,1000.92
2023-04-20T07:37:13.063Z,1000.86
2023-04-20T07:38:13.113Z,1000.86
2023-04-20T07:39:13.074Z,1000.91
2023-04-20T07:40:13.180Z,1000.93
2023-04-20T07:41:13.541Z,1000.94
2023-04-20T07:42:13.693Z,1000.87
2023-04-20T07:43:18.954Z,1000.82
2023-04-20T07:44:12.867Z,1000.93
2023-04-20T07:45:13.700Z,1000.94
2023-04-20T07:46:13.653Z,1000.91
2023-04-20T07:47:14.009Z,1000.91
2023-04-20T07:48:13.042Z,1000.93
2023-04-20T07:49:12.974Z,1000.94
2023-04-20T07:50:13.208Z,1000.88
2023-04-20T07:51:13.519Z,1000.92
2023-04-20T07:52:17.038Z,1000.94
2023-04-20T07:53:13.658Z,1000.84
2023-04-20T07:54:13.459Z,1000.90
2023-04-20T07:55:13.646Z,1000.90
2023-04-20T07:56:46.251Z,1000.90
2023-04-20T07:57:13.551Z,1000.85
2023-04-20T07:58:13.479Z,1000.78
2023-04-20T07:59:13.832Z,1000.87
2023-04-20T08:00:21.270Z,1000.84
2023-04-20T08:01:13.586Z,1000.84
2023-04-20T08:02:13.761Z,1000.85
2023-04-20T08:03:13.997Z,1000.82
2023-04-20T08:04:13.485Z,1000.80
2023-04-20T08:05:14.004Z,1000.80
2023-04-20T08:06:13.018Z,1000.77
2023-04-20T08:07:12.855Z,1000.81
2023-04-20T08:08:13.808Z,1000.84
2023-04-20T08:09:13.782Z,1000.84
2023-04-20T08:10:13.805Z,1000.86
2023-04-20T08:11:13.703Z,1000.84
2023-04-20T08:12:14.127Z,1000.87
2023-04-20T08:13:13.433Z,1000.83
2023-04-20T08:14:13.522Z,1000.76
2023-04-20T08:15:13.512Z,1000.83
2023-04-20T08:16:13.654Z,1000.85
2023-04-20T08:17:13.476Z,1000.85
2023-04-20T08:18:13.703Z,1000.84
2023-04-20T08:20:13.710Z,1000.84
2023-04-20T08:21:13.608Z,1000.85
2023-04-20T08:22:13.722Z,1000.85
2023-04-20T08:23:13.951Z,1000.84
2023-04-20T08:24:13.037Z,1000.80
2023-04-20T08:25:13.049Z,1000.89
2023-04-20T08:26:12.923Z,1000.88
2023-04-20T08:27:12.816Z,1000.92
2023-04-20T08:28:24.333Z,1000.90
2023-04-20T08:29:13.924Z,1000.94
2023-04-20T08:30:12.963Z,1000.94
2023-04-20T08:31:12.901Z,1000.88
2023-04-20T08:32:13.122Z,1000.91
2023-04-20T08:33:13.395Z,1000.93
2023-04-20T08:34:13.483Z,1000.90
2023-04-20T08:35:13.793Z,1000.86
2023-04-20T08:36:13.992Z,1000.86
2023-04-20T08:37:12.925Z,1000.80
2023-04-20T08:38:17.956Z,1000.82
2023-04-20T08:39:13.246Z,1000.87
2023-04-20T08:40:13.267Z,1000.83
2023-04-20T08:41:13.212Z,1000.83
2023-04-20T08:42:13.172Z,1000.81
2023-04-20T08:43:13.209Z,1000.74
2023-04-20T08:44:13.104Z,1000.77
2023-04-20T08:45:13.046Z,1000.74
2023-04-20T08:46:13.296Z,1000.74
2023-04-20T08:47:13.403Z,1000.75
2023-04-20T08:48:13.396Z,1000.71
2023-04-20T08:49:13.314Z,1000.69
2023-04-20T08:50:13.409Z,1000.71
2023-04-20T08:51:13.433Z,1000.71
2023-04-20T08:52:13.505Z,1000.67
2023-04-20T08:53:13.794Z,1000.69
2023-04-20T08:54:14.259Z,1000.73
2023-04-20T08:55:13.670Z,1000.70
2023-04-20T08:56:13.954Z,1000.69
2023-04-20T08:57:14.114Z,1000.71
2023-04-20T08:58:13.591Z,1000.78
2023-04-20T08:59:13.547Z,1000.75
2023-04-20T09:00:14.165Z,1000.78
2023-04-20T09:01:17.553Z,1000.73
2023-04-20T09:02:13.229Z,1000.68
2023-04-20T09:03:13.398Z,1000.74
2023-04-20T09:04:13.784Z,1000.73
2023-04-20T09:05:12.823Z,1000.69
2023-04-20T09:06:13.757Z,1000.73
2023-04-20T09:07:13.673Z,1000.75
2023-04-20T09:08:13.673Z,1000.78
2023-04-20T09:09:13.539Z,1000.80
2023-04-20T09:10:13.495Z,1000.77
2023-04-20T09:11:13.366Z,1000.64
2023-04-20T09:12:13.788Z,1000.73
2023-04-20T09:13:14.002Z,1000.76
2023-04-20T09:14:12.895Z,1000.78
2023-04-20T09:15:12.770Z,1000.85
2023-04-20T09:16:13.785Z,1000.80
2023-04-20T09:17:13.875Z,1000.76
2023-04-20T09:18:12.758Z,1000.77
2023-04-20T09:19:14.056Z,1000.78
2023-04-20T09:20:13.025Z,1000.80
2023-04-20T09:21:12.883Z,1000.80
2023-04-20T09:22:12.804Z,1000.82
2023-04-20T09:23:13.682Z,1000.85
2023-04-20T09:24:13.554Z,1000.84
2023-04-20T09:25:13.446Z,1000.82
2023-04-20T09:26:13.385Z,1000.81
2023-04-20T09:27:13.308Z,1000.77
2023-04-20T09:28:13.213Z,1000.73
2023-04-20T09:29:13.091Z,1000.80
2023-04-20T09:30:13.095Z,1000.79
2023-04-20T09:31:15.025Z,1000.80
2023-04-20T09:32:13.425Z,1000.79
2023-04-20T09:33:13.723Z,1000.83
2023-04-20T09:34:13.837Z,1000.82
2023-04-20T09:35:12.828Z,1000.78
2023-04-20T09:36:13.846Z,1000.83
2023-04-20T09:37:13.928Z,1000.84
2023-04-20T09:38:12.993Z,1000.83
2023-04-20T09:39:12.921Z,1000.79
2023-04-20T09:40:12.894Z,1000.82
2023-04-20T09:41:12.875Z,1000.82
2023-04-20T09:42:13.829Z,1000.83
2023-04-20T09:43:15.295Z,1000.81
2023-04-20T09:44:14.217Z,1000.84
2023-04-20T09:45:13.348Z,1000.82
2023-04-20T09:46:13.323Z,1000.88
2023-04-20T09:47:13.614Z,1000.80
2023-04-20T09:48:13.681Z,1000.73
2023-04-20T09:49:13.572Z,1000.83
2023-04-20T09:50:24.825Z,1000.79
2023-04-20T09:51:13.402Z,1000.81
2023-04-20T09:52:13.305Z,1000.78
2023-04-20T09:53:13.342Z,1000.81
2023-04-20T09:54:13.426Z,1000.77
2023-04-20T09:55:13.395Z,1000.78
2023-04-20T09:56:13.243Z,1000.82
2023-04-20T09:57:13.193Z,1000.84
2023-04-20T09:58:13.131Z,1000.75
2023-04-20T09:59:13.125Z,1000.78
2023-04-20T10:00:13.120Z,1000.76
2023-04-20T10:01:13.270Z,1000.78
2023-04-20T10:02:13.496Z,1000.76
2023-04-20T10:03:13.718Z,1000.73
2023-04-20T10:04:14.050Z,1000.73
2023-04-20T10:05:13.384Z,1000.72
2023-04-20T10:06:13.508Z,1000.65
2023-04-20T10:07:13.503Z,1000.75
2023-04-20T10:08:13.564Z,1000.66
2023-04-20T10:09:13.509Z,1000.65
2023-04-20T10:10:13.375Z,1000.61
2023-04-20T10:11:13.401Z,1000.68
2023-04-20T10:12:13.331Z,1000.67
2023-04-20T10:13:13.275Z,1000.70
2023-04-20T10:14:13.207Z,1000.68
2023-04-20T10:15:13.193Z,1000.68
2023-04-20T10:16:13.146Z,1000.75
2023-04-20T10:17:13.321Z,1000.65
2023-04-20T10:18:13.548Z,1000.70
2023-04-20T10:19:13.640Z,1000.65
2023-04-20T10:20:13.519Z,1000.66
2023-04-20T10:21:13.442Z,1000.70
2023-04-20T10:22:13.649Z,1000.65
2023-04-20T10:23:13.674Z,1000.62
2023-04-20T10:24:13.606Z,1000.69
2023-04-20T10:25:13.765Z,1000.61
2023-04-20T10:26:13.683Z,1000.62
2023-04-20T10:27:13.668Z,1000.60
2023-04-20T10:28:13.643Z,1000.60
2023-04-20T10:29:13.703Z,1000.70
2023-04-20T10:30:13.653Z,1000.63
2023-04-20T10:31:14.054Z,1000.64
2023-04-20T10:32:13.028Z,1000.60
2023-04-20T10:33:13.223Z,1000.61
2023-04-20T10:34:13.389Z,1000.60
2023-04-20T10:35:13.347Z,1000.63
2023-04-20T10:36:13.317Z,1000.58
2023-04-20T10:37:13.227Z,1000.54
2023-04-20T10:38:13.265Z,1000.55
2023-04-20T10:39:13.159Z,1000.57
2023-04-20T10:40:13.302Z,1000.61
2023-04-20T10:41:13.549Z,1000.60
2023-04-20T10:42:14.639Z,1000.50
2023-04-20T10:43:13.022Z,1000.50
2023-04-20T10:44:13.050Z,1000.53
2023-04-20T10:45:13.021Z,1000.55
2023-04-20T10:46:13.307Z,1000.52
2023-04-20T10:47:13.159Z,1000.48
2023-04-20T10:48:13.829Z,1000.53
2023-04-20T10:49:14.029Z,1000.50
2023-04-20T10:50:13.063Z,1000.57
2023-04-20T10:51:13.084Z,1000.43
2023-04-20T10:52:13.008Z,1000.53
2023-04-20T10:53:12.943Z,1000.52
2023-04-20T10:54:12.877Z,1000.46
2023-04-20T10:55:14.197Z,1000.50
2023-04-20T10:56:13.418Z,1000.49
2023-04-20T10:57:13.709Z,1000.52
2023-04-20T10:58:13.769Z,1000.59
2023-04-20T10:59:14.036Z,1000.58
2023-04-20T11:00:13.103Z,1000.49
2023-04-20T11:01:12.977Z,1000.48
2023-04-20T11:02:13.007Z,1000.51
2023-04-20T11:03:13.111Z,1000.48
2023-04-20T11:04:13.847Z,1000.44
2023-04-20T11:05:13.191Z,1000.45
2023-04-20T11:06:13.207Z,1000.44
2023-04-20T11:07:13.579Z,1000.37
2023-04-20T11:08:13.671Z,1000.37
2023-04-20T11:09:13.487Z,1000.35
2023-04-20T11:10:13.521Z,1000.37
2023-04-20T11:11:13.317Z,1000.34
2023-04-20T11:12:13.519Z,1000.35
2023-04-20T11:13:13.652Z,1000.44
2023-04-20T11:14:13.577Z,1000.42
2023-04-20T11:15:14.807Z,1000.33
2023-04-20T11:16:13.767Z,1000.36
2023-04-20T11:17:13.749Z,1000.30
2023-04-20T11:18:13.245Z,1000.33
2023-04-20T11:19:13.175Z,1000.31
2023-04-20T11:20:13.099Z,1000.30
2023-04-20T11:21:13.256Z,1000.15
2023-04-20T11:22:13.551Z,1000.22
2023-04-20T11:23:13.675Z,1000.24
2023-04-20T11:24:13.714Z,1000.22
2023-04-20T11:25:13.840Z,1000.28
2023-04-20T11:26:13.982Z,1000.28
2023-04-20T11:27:12.969Z,1000.32
2023-04-20T11:28:13.077Z,1000.30
2023-04-20T11:29:13.158Z,1000.26
2023-04-20T11:30:13.107Z,1000.26
2023-04-20T11:31:13.013Z,1000.25
2023-04-20T11:32:13.091Z,1000.28
2023-04-20T11:33:13.360Z,1000.23
2023-04-20T11:34:13.933Z,1000.25
2023-04-20T11:35:12.871Z,1000.28
2023-04-20T11:36:13.747Z,1000.20
2023-04-20T11:37:13.705Z,1000.14
2023-04-20T11:38:13.781Z,1000.13
2023-04-20T11:39:13.701Z,1000.26
2023-04-20T11:40:13.285Z,1000.24
2023-04-20T11:41:13.292Z,1000.21
2023-04-20T11:42:13.464Z,1000.24
2023-04-20T11:43:13.276Z,1000.23
2023-04-20T11:44:13.346Z,1000.25
2023-04-20T11:45:13.275Z,1000.29
2023-04-20T11:46:13.299Z,1000.24
2023-04-20T11:47:13.248Z,1000.27
2023-04-20T11:48:13.265Z,1000.28
2023-04-20T11:49:13.709Z,1000.30
2023-04-20T11:50:13.745Z,1000.27
2023-04-20T11:51:13.690Z,1000.26
2023-04-20T11:52:13.787Z,1000.30
2023-04-20T11:53:14.153Z,1000.28
2023-04-20T11:54:13.319Z,1000.32
2023-04-20T11:55:13.339Z,1000.31
2023-04-20T11:56:13.429Z,1000.33
2023-04-20T11:57:13.305Z,1000.26
2023-04-20T11:58:13.440Z,1000.20
2023-04-20T11:59:13.255Z,1000.27
2023-04-20T12:00:13.292Z,1000.28
2023-04-20T12:01:13.556Z,1000.25
2023-04-20T12:02:13.539Z,1000.27
2023-04-20T12:03:13.870Z,1000.31
2023-04-20T12:04:13.029Z,1000.27
2023-04-20T12:05:13.686Z,1000.26
2023-04-20T12:06:13.850Z,1000.29